Aviation Digital Data Service (ADDS)

Output produced by METARs form (0836 UTC 10 December 2022)
found at http://www.aviationweather.gov/metar/data/
 
KBOS 100754Z 35009KT 10SM SCT030 01/M09 A3034 RMK AO2 SLP275 T00061089
KBOS 100536Z 1006/1112 01011KT P6SM FEW035 
     FM101000 01012KT P6SM BKN035 
     FM101300 02012KT P6SM BKN025 
     FM110600 36009KT P6SM VCSH BKN025
       
KLGA 100751Z 01006KT 10SM CLR 01/M10 A3032 RMK AO2 SLP266 T00061100
KLGA 100830Z 1008/1112 02010KT P6SM SKC 
     FM101300 03012KT P6SM FEW035 
     FM101800 05010KT P6SM SCT035 
     FM110000 06009KT P6SM FEW015 BKN035 
     FM110900 07009KT P6SM BKN020 BKN050
       
KJFK 100751Z 36009KT 10SM CLR 01/M09 A3032 RMK AO2 SLP267 T00061094
KJFK 100830Z 1008/1112 01011KT P6SM SKC 
     FM101300 03012KT P6SM FEW035 
     FM101900 05010KT P6SM SCT035 
     FM110000 06007KT P6SM FEW015 BKN035 
     FM110900 07007KT P6SM BKN020 BKN050
       
KEWR 100751Z 02008KT 10SM CLR M01/M10 A3032 RMK AO2 SLP265 T10061100
KEWR 100830Z 1008/1112 01009KT P6SM SKC 
     FM101500 03009KT P6SM SKC 
     FM102100 05008KT P6SM SCT035 
     FM110000 04007KT P6SM FEW015 BKN035 
     FM110900 04007KT P6SM BKN020 BKN050
       
KPHL 100754Z 03005KT 10SM CLR 01/M08 A3030 RMK AO2 SLP260 T00061083 $
KPHL 100528Z 1006/1112 02005KT P6SM SKC 
     FM101200 05010KT P6SM SCT250 
     FM102200 06005KT P6SM BKN035 
     FM110800 05005KT P6SM BKN025
       
KBWI 100754Z 28004KT 10SM CLR M03/M05 A3030 RMK AO2 SLP262 T10281050
KBWI 100540Z 1006/1112 35003KT P6SM SKC 
     FM101500 05006KT P6SM OVC070 
     FM102100 08004KT P6SM OVC070 
     FM110700 07004KT P6SM OVC030 
     FM111100 08004KT P6SM OVC015
       
KDCA 100752Z 02006KT 10SM CLR 01/M02 A3032 RMK AO2 SLP265 T00111022 $
KDCA 100540Z 1006/1112 04005KT P6SM SKC 
     FM101000 03006KT P6SM BKN050 
     FM101500 06007KT P6SM OVC050 
     FM110400 10006KT P6SM OVC050 
     FM110700 09005KT P6SM OVC030
       
KIAD 100752Z 05005KT 10SM FEW040 M02/M05 A3029 RMK AO2 SLP259 T10221050
KIAD 100540Z 1006/1112 34004KT P6SM SKC 
     FM100900 03004KT P6SM BKN050 
     FM101500 07005KT P6SM OVC050 
     FM110300 10003KT P6SM OVC040 
     FM110700 10004KT P6SM OVC025
       
KCLT 100752Z 09004KT 10SM OVC025 09/07 A3022 RMK SLP232 T00890067
KCLT 100540Z 1006/1112 08003KT 5SM -DZ BR SCT006 BKN013 OVC025 
     TEMPO 1006/1009 P6SM NSW BKN006 OVC013 
     FM100900 09004KT P6SM OVC013 
     FM101500 08005KT P6SM OVC022 
     FM102100 06005KT P6SM BKN035 OVC060 
     FM110800 VRB02KT 6SM BR VCSH SCT025 BKN035 
     PROB30 1108/1112 4SM -RA BR OVC025
       
KATL 100752Z 07008KT 1/2SM R09R/P6000FT -DZ BR BKN004 OVC008 13/12 A3016 RMK AO2 SFC VIS 3 DZB49 SLP210 CIG 002V006 P0000 T01280122
KATL 100737Z 1008/1112 09007KT 4SM BR OVC004 
     FM101200 08005KT 5SM BR OVC004 
     FM101600 09005KT P6SM OVC006 
     FM102100 09005KT P6SM OVC012 
     FM110200 10005KT 6SM BR OVC009 
     PROB30 1102/1106 2SM -RA BR OVC003 
     FM110900 10006KT 3SM -SHRA BR OVC004
       
KTPA 100826Z 35004KT 3SM OVC005 17/17 A3012 RMK AO2 SFC VIS 9 T01720167
KTPA 100521Z 1006/1112 00000KT 1SM BR BKN003 
     FM100900 VRB03KT 1/2SM FG BKN003 
     TEMPO 1010/1013 1/4SM FG VV002 
     FM101400 VRB03KT 5SM BR SCT005 
     FM101600 02003KT P6SM FEW035 
     FM102000 29008KT P6SM FEW250 
     FM110800 03002KT P6SM VCFG SCT004
       
KMCO 100753Z 31003KT 8SM CLR 17/16 A3010 RMK AO2 SLP191 T01720161
KMCO 100540Z 1006/1112 28004KT P6SM FEW040 
     FM100900 VRB03KT 2SM BR FEW004 SCT015 
     TEMPO 1009/1013 1/2SM FG BKN003 
     FM101400 33003KT P6SM FEW008 SCT030 
     FM101800 34007KT P6SM FEW040 
     FM110000 02006KT P6SM FEW040 SCT250
       
KMIA 100753Z 00000KT 10SM CLR 22/18 A3007 RMK AO2 SLP182 T02170178
KMIA 100520Z 1006/1112 VRB04KT P6SM FEW040 
     FM101500 03007KT P6SM SCT040 
     FM101800 06008KT P6SM FEW030 SCT050 
     FM110100 VRB04KT P6SM FEW035
       
KFLL 100753Z 34003KT 10SM CLR 20/18 A3006 RMK AO2 SLP178 T02000178 $
KFLL 100520Z 1006/1112 VRB04KT P6SM FEW040 
     FM101500 03007KT P6SM SCT040 
     FM101800 06010KT P6SM FEW030 SCT050 
     FM110200 VRB04KT P6SM FEW035
       
KDTW 100753Z 06012KT 10SM OVC017 01/M03 A3027 RMK AO2 SLP255 T00061033 PNO
KDTW 100538Z 1006/1112 04012KT P6SM OVC015 
     FM101200 07009KT P6SM BKN020 
     FM101800 08011KT P6SM OVC035 
     FM102200 08004KT P6SM OVC012
       
KORD 100751Z 08005KT 6SM BR OVC010 03/01 A3021 RMK AO2 SLP237 T00330011 $
KORD 100522Z 1006/1112 09009KT 5SM -DZ BR OVC008 
     FM101000 09007KT 3SM BR OVC004 
     FM101700 12007KT P6SM OVC007 
     FM102100 17005KT P6SM OVC012 
     FM110200 23005KT P6SM BKN020 
     FM110600 30005KT P6SM BKN025
       
KMDW 100753Z 09006KT 6SM BR FEW009 BKN011 OVC029 03/01 A3022 RMK AO2 SLP244 T00280006
KMDW 100522Z 1006/1112 09009KT 5SM -DZ BR OVC008 
     FM101000 09007KT 3SM BR OVC004 
     FM101700 12007KT P6SM OVC007 
     FM102100 17005KT P6SM OVC012 
     FM110200 23005KT P6SM BKN020 
     FM110600 30005KT P6SM BKN025
       
KMSP 100753Z 12011KT 5SM -SN BR OVC012 M01/M03 A3018 RMK AO2 SLP232 P0000 T10061028
KMSP 100520Z 1006/1112 12008KT P6SM -SHSN OVC017 
     FM100900 12007KT 6SM -SHSN BR OVC012 
     TEMPO 1009/1012 2SM -FZDZ BR OVC008 
     FM101200 14006KT 4SM -FZDZ BR OVC006 
     TEMPO 1012/1015 2SM BR OVC003 
     FM101500 15005KT 3SM -DZ BR OVC003 
     FM101700 16005KT 5SM -DZ BR OVC003 
     FM102000 18004KT P6SM -DZ OVC004 
     FM110500 00000KT P6SM BKN011
       
KMEM 100813Z 08004KT 1/8SM R36L/1200V1600FT FG SCT000 BKN250 08/08 A3014 RMK AO2 FG SCT000 T00830083
KMEM 100527Z 1006/1112 00000KT 6SM BR FEW004 BKN250 
     TEMPO 1006/1008 5SM BR OVC004 
     FM100800 VRB03KT 3SM BR OVC004 
     TEMPO 1008/1012 1SM BR OVC003 
     FM101500 08005KT 6SM BR VCSH OVC010 
     FM101700 07006KT 3SM -RA BR OVC007 
     FM110100 04004KT 2SM -DZ BR OVC003
       
KDFW 100753Z 16003KT 1/4SM R17C/P6000FT BR OVC001 18/18 A3003 RMK AO2 SFC VIS 1 1/2 SLP162 T01780178
KDFW 100528Z 1006/1112 14005KT 2SM BR OVC003 
     TEMPO 1006/1010 1/4SM FG OVC002 
     FM101000 16007KT 3SM BR VCSH OVC006 
     TEMPO 1010/1014 1/2SM FG BKN003 
     FM101600 17007KT P6SM VCSH OVC010 
     FM101900 24007KT 5SM -SHRA BR VCTS OVC010CB 
     FM102100 36010KT 6SM -SHRA BR VCTS OVC012CB 
     FM110300 01008KT P6SM VCTS OVC015CB 
     FM110700 01006KT 5SM BR OVC012
       
KIAH 100822Z 16005KT 7SM FEW009 BKN017 21/21 A3008 RMK AO2 T02110206
KIAH 100520Z 1006/1112 17005KT 6SM BR SCT007 BKN020 
     FM100700 15005KT 4SM BR OVC006 
     FM101000 14004KT 2SM BR OVC005 
     FM101500 15007KT P6SM SCT010 SCT030 
     FM101800 16009KT P6SM VCSH BKN035 
     FM110100 14006KT P6SM VCTS BKN025CB
       
KDEN 100753Z 28011KT 10SM CLR 04/M14 A3003 RMK AO2 PK WND 30031/0725 SLP155 T00391144
KDEN 100834Z 1009/1112 28011KT P6SM SKC 
     FM100930 24009KT P6SM SKC 
     FM101030 20008KT P6SM SKC 
     FM101500 24006KT P6SM FEW200 
     FM101800 VRB05KT P6SM SCT200 
     FM102100 06007KT P6SM BKN200 
     FM110200 20011KT P6SM BKN200
       
KSLC 100754Z 15008KT 10SM BKN110 00/M04 A3007 RMK AO2 SLP188 T00001044
KSLC 100825Z 1008/1112 15005KT P6SM SCT100 BKN150 
     TEMPO 1008/1011 15013G26KT 
     FM101700 16010G20KT P6SM SCT100 OVC120 
     FM101900 17015G25KT P6SM SCT100 OVC120 
     FM110100 17010KT P6SM OVC100
       
KSEA 100753Z 11010KT 8SM -RA BKN038 OVC050 04/02 A2935 RMK AO2 SLP948 P0005 T00440017 400610022
KSEA 100534Z 1006/1112 14010G20KT 6SM -RA BR OVC030 WS020/14040KT 
     FM101000 12012G18KT 6SM -RA BR OVC018 
     FM101600 12010KT P6SM -SHRA BKN025 OVC035 
     FM110000 09008KT P6SM VCSH BKN027 OVC040 
     FM110600 VRB04KT P6SM BKN045
       
KSFO 100756Z 16013KT 10SM BKN040 OVC100 11/06 A2998 RMK AO2 SLP152 T01110061 401170061
KSFO 100549Z 1006/1112 17005KT P6SM BKN025 OVC035 
     FM100900 17017KT P6SM BKN030 OVC040 
     FM101000 17015G25KT P6SM VCSH OVC040 WS020/22040KT 
     FM101200 17025G35KT 4SM -RA BR OVC020 WS020/22050KT 
     FM101500 17035G47KT 2SM +RA BR BKN009 OVC015 WS020/19065KT 
     FM101900 24025G30KT 6SM -RA BR BKN025 BKN050 
     FM110200 23015KT 5SM -SHRA BR OVC030 
     FM110600 23012KT 5SM -SHRA OVC030
       
KLAX 100753Z 04004KT 10SM SCT015 BKN030 12/08 A3013 RMK AO2 SLP203 T01220083 401670067 $
KLAX 100554Z 1006/1112 VRB03KT P6SM BKN015 BKN200 
     FM101100 VRB03KT P6SM OVC025 
     FM102000 23009KT P6SM VCSH OVC025 
     FM110300 16009KT 6SM -SHRA BR OVC015 
     FM110600 16015KT 4SM -RA BR SCT008 OVC015 
     FM110900 16022G32KT 2SM RA BR OVC008
       
KSAN 100751Z 00000KT 10SM CLR 08/06 A3016 RMK AO2 SLP211 T00830061 401670061
KSAN 100526Z 1006/1112 VRB04KT P6SM FEW025 
     TEMPO 1012/1015 BKN025 
     FM102100 28009KT P6SM FEW250 
     FM110200 28004KT P6SM SCT025 
     FM110500 20006KT P6SM BKN030
       
KLAS 100756Z 18003KT 10SM FEW250 05/M04 A3009 RMK AO2 SLP191 T00501039 401280028
KLAS 100532Z 1006/1112 22005KT P6SM SCT250 
     FM101500 VRB04KT P6SM BKN250 
     FM102000 10006KT P6SM SCT250 
     FM110200 16010KT P6SM SCT150 SCT250
       
KPHX 100751Z 00000KT 10SM FEW250 09/03 A3006 RMK AO2 SLP174 T00890028
KPHX 100830Z 1009/1112 11004KT P6SM SKC 
     FM102300 28004KT P6SM SKC 
     FM110400 09005KT P6SM FEW250
       
KSDF 100756Z 00000KT 1/2SM FG VV001 08/08 A3017 RMK AO2 SLP216 T00830083 RVRNO $
KSDF 100635Z 1007/1112 00000KT 1/2SM FG BKN002 
     FM101400 24004KT 2SM BR BKN004 
     FM101800 25006KT P6SM OVC012 
     FM102200 25005KT P6SM OVC025
       
KIND 100754Z 07008KT 5SM BR OVC007 05/04 A3016 RMK AO2 SLP218 T00500039 $
KIND 100520Z 1006/1112 03004KT 2SM BR BKN003 OVC008 
     TEMPO 1006/1010 1SM BR 
     FM101000 05003KT 3SM BR OVC004 
     TEMPO 1010/1012 1/2SM FG VV001 
     FM101300 10003KT 5SM BR BKN008 OVC011 
     FM101700 14003KT P6SM BKN012 OVC022
       
KCVG 100820Z 36004KT 2 1/2SM BR FEW005 BKN020 OVC055 06/06 A3017 RMK AO2 T00610056 $
KCVG 100735Z 1008/1112 36003KT 3SM BR OVC012 
     FM101000 VRB03KT 1SM BR OVC003 
     FM101400 VRB03KT 2SM BR OVC004 
     FM101500 VRB03KT P6SM BKN007 OVC012 
     FM101800 21003KT P6SM BKN025 
     FM110100 24003KT P6SM OVC015 
     FM110400 26003KT P6SM VCSH OVC012 
     FM110600 30004KT P6SM OVC008